Time;durP1;ratioP1;P1;durP2;ratioP2;P2;SDS_P1;SDS_P2;PMS_P1;PMS_P2;Temp;Humidity;BMP_temperature;BMP_pressure;BME280_temperature;BME280_humidity;BME280_pressure;Samples;Min_cycle;Max_cycle;Signal;HPM_P1;HPM_P2
2021/07/24 00:05:03;;;;;;;;;;;;;;;;;;;;;
2021/07/24 00:07:52;;;;;;;;;;;;;;;;;;;;;
2021/07/24 00:10:33;;;;;;;21.70;6.73;;;19.10;99.90;;;;;;5037587;28;20441;-87
2021/07/24 00:16:10;;;;;;;20.00;5.80;;;19.10;99.90;;;;;;5031280;28;20497;-87
2021/07/24 00:19:13;;;;;;;19.77;6.67;;;19.00;99.90;;;;;;5033367;28;20468;-88
2021/07/24 00:22:07;;;;;;;19.13;6.60;;;19.00;99.90;;;;;;5049944;28;20452;-88
2021/07/24 00:25:06;;;;;;;;;;;;;;;;;;;;;
2021/07/24 00:30:52;;;;;;;21.20;7.00;;;18.80;99.90;;;;;;5050299;28;20444;-88
2021/07/24 00:33:39;;;;;;;21.77;7.47;;;18.80;99.90;;;;;;5052771;28;20448;-87
2021/07/24 00:36:46;;;;;;;21.03;6.77;;;18.80;99.90;;;;;;5051126;28;20486;-87
2021/07/24 00:39:36;;;;;;;19.87;6.93;;;18.80;99.90;;;;;;5051757;28;20527;-89
2021/07/24 00:42:43;;;;;;;19.87;7.00;;;18.80;99.90;;;;;;5052605;28;21079;-89
2021/07/24 00:45:37;;;;;;;17.67;6.37;;;18.70;99.90;;;;;;5044660;28;20444;-88
2021/07/24 00:51:44;;;;;;;;;;;;;;;;;;;;;
2021/07/24 00:54:39;;;;;;;21.80;7.40;;;18.60;99.90;;;;;;5055464;28;20446;-88
2021/07/24 00:57:45;;;;;;;17.53;7.43;;;18.60;99.90;;;;;;5056435;28;20490;-87
2021/07/24 01:00:23;;;;;;;16.37;6.60;;;18.60;99.90;;;;;;5054507;28;20443;-87
2021/07/24 01:06:01;;;;;;;16.83;6.57;;;18.50;99.90;;;;;;5055529;28;20473;-88
2021/07/24 01:08:42;;;;;;;17.17;7.77;;;18.50;99.90;;;;;;5053953;28;20464;-88
2021/07/24 01:14:31;;;;;;;19.93;7.67;;;18.40;99.90;;;;;;5034996;28;20445;-87
2021/07/24 01:17:24;;;;;;;18.10;7.43;;;18.30;99.90;;;;;;5036696;28;21089;-89
2021/07/24 01:20:10;;;;;;;19.87;6.97;;;18.40;99.90;;;;;;5036095;28;20519;-88
2021/07/24 01:22:51;;;;;;;19.27;6.87;;;18.30;99.90;;;;;;5036548;28;20452;-90
2021/07/24 01:25:56;;;;;;;18.13;7.37;;;18.40;99.90;;;;;;5037438;28;20456;-87
2021/07/24 01:28:40;;;;;;;15.50;7.00;;;18.40;99.90;;;;;;5014589;28;20475;-89
2021/07/24 01:31:28;;;;;;;18.27;8.00;;;18.40;99.90;;;;;;5016501;28;20477;-89
2021/07/24 01:34:04;;;;;;;16.10;7.43;;;18.30;99.90;;;;;;5017217;28;20440;-89
2021/07/24 01:36:47;;;;;;;15.27;7.43;;;18.30;99.90;;;;;;5014548;28;20519;-88
2021/07/24 01:39:59;;;;;;;18.57;7.90;;;18.20;99.90;;;;;;5016716;28;20445;-88
2021/07/24 01:45:45;;;;;;;17.07;8.47;;;18.30;99.90;;;;;;5014234;28;20453;-89
2021/07/24 01:48:31;;;;;;;19.57;8.80;;;18.30;99.90;;;;;;5016546;28;20842;-88
2021/07/24 01:54:05;;;;;;;17.47;8.80;;;18.20;99.90;;;;;;5017221;28;20429;-88
2021/07/24 01:57:05;;;;;;;19.50;8.90;;;18.20;99.90;;;;;;5016987;28;20579;-88
2021/07/24 01:59:43;;;;;;;19.50;9.47;;;18.10;99.90;;;;;;5026740;28;20813;-88
2021/07/24 02:02:18;;;;;;;16.27;7.60;;;18.10;99.90;;;;;;5035373;28;20466;-88
2021/07/24 02:10:47;;;;;;;18.00;8.73;;;18.10;99.90;;;;;;5036690;28;20441;-85
2021/07/24 02:13:28;;;;;;;19.80;7.57;;;18.00;99.90;;;;;;5037129;28;20515;-87
2021/07/24 02:19:21;;;;;;;17.13;8.13;;;18.00;99.90;;;;;;5034350;28;20836;-86
2021/07/24 02:22:20;;;;;;;16.03;8.00;;;17.90;99.90;;;;;;5035760;28;20560;-89
2021/07/24 02:30:48;;;;;;;17.47;7.70;;;17.80;99.90;;;;;;5034374;28;20472;-87
2021/07/24 02:33:31;;;;;;;16.07;8.17;;;17.80;99.90;;;;;;5038762;28;20513;-88
2021/07/24 02:36:05;;;;;;;16.90;8.50;;;17.70;99.90;;;;;;5037258;28;20512;-88
2021/07/24 02:39:10;;;;;;;16.10;8.13;;;17.70;99.90;;;;;;5035705;28;20476;-87
2021/07/24 02:44:48;;;;;;;18.60;9.87;;;17.60;99.90;;;;;;5034087;28;20445;-87
2021/07/24 02:47:33;;;;;;;;;;;;;;;;;;;;;
2021/07/24 02:50:11;;;;;;;15.50;8.17;;;17.50;99.90;;;;;;5037314;28;20437;-87
2021/07/24 02:55:40;;;;;;;15.80;9.03;;;17.40;99.90;;;;;;5034759;28;20496;-88
2021/07/24 02:58:22;;;;;;;17.50;7.77;;;17.40;99.90;;;;;;5036269;28;20473;-88
2021/07/24 03:00:51;;;;;;;14.60;7.90;;;17.40;99.90;;;;;;5032359;28;20441;-88
2021/07/24 03:03:46;;;;;;;17.83;9.67;;;17.30;99.90;;;;;;5016599;28;20422;-86
2021/07/24 03:06:13;;;;;;;17.17;8.10;;;17.30;99.90;;;;;;5036026;28;21061;-85
2021/07/24 03:08:44;;;;;;;16.03;8.37;;;17.30;99.90;;;;;;5037070;28;20445;-88
2021/07/24 03:11:25;;;;;;;22.10;9.07;;;17.30;99.90;;;;;;5037451;28;20444;-88
2021/07/24 03:14:12;;;;;;;20.33;8.60;;;17.30;99.90;;;;;;5037114;28;20463;-87
2021/07/24 03:16:51;;;;;;;19.03;8.50;;;17.30;99.90;;;;;;5036721;28;20520;-88
2021/07/24 03:19:27;;;;;;;16.17;7.90;;;17.30;99.90;;;;;;5037108;28;20559;-85
2021/07/24 03:22:15;;;;;;;16.20;8.60;;;17.30;99.90;;;;;;5039303;28;20520;-87
2021/07/24 03:24:50;;;;;;;15.37;8.10;;;17.30;99.90;;;;;;5042019;28;20432;-85
2021/07/24 03:27:49;;;;;;;19.90;9.93;;;17.40;99.90;;;;;;5052064;28;20480;-87
2021/07/24 03:30:18;;;;;;;15.20;8.93;;;17.30;99.90;;;;;;5033487;28;20463;-87
2021/07/24 03:32:53;;;;;;;14.50;8.00;;;17.30;99.90;;;;;;5035824;28;20945;-88
2021/07/24 03:35:27;;;;;;;19.20;10.20;;;17.30;99.90;;;;;;5041129;28;20488;-88
2021/07/24 03:38:11;;;;;;;15.33;8.43;;;17.30;99.90;;;;;;5036700;28;20480;-88
2021/07/24 03:40:47;;;;;;;15.23;7.90;;;17.30;99.90;;;;;;5035257;28;20465;-88
2021/07/24 03:46:03;;;;;;;17.43;8.73;;;17.20;99.90;;;;;;5033032;28;20520;-86
2021/07/24 03:48:46;;;;;;;15.37;8.53;;;17.20;99.90;;;;;;5033796;28;20514;-84
2021/07/24 03:51:21;;;;;;;18.53;8.57;;;17.20;99.90;;;;;;5035382;28;20901;-86
2021/07/24 03:53:55;;;;;;;16.83;9.13;;;17.20;99.90;;;;;;5036281;28;20490;-87
2021/07/24 03:56:31;;;;;;;15.80;8.23;;;17.20;99.90;;;;;;5034761;28;20862;-87
2021/07/24 03:59:10;;;;;;;17.17;8.93;;;17.30;99.90;;;;;;5034483;28;20514;-87
2021/07/24 04:01:42;;;;;;;17.37;8.13;;;17.30;99.90;;;;;;5035606;28;20461;-88
2021/07/24 04:04:12;;;;;;;17.17;8.90;;;17.20;99.90;;;;;;5036168;28;20460;-87
2021/07/24 04:06:47;;;;;;;15.70;8.33;;;17.20;99.90;;;;;;5014871;28;20484;-88
2021/07/24 04:09:22;;;;;;;17.20;9.10;;;17.30;99.90;;;;;;5014589;28;21020;-87
2021/07/24 04:11:52;;;;;;;18.07;9.43;;;17.30;99.90;;;;;;5014555;28;20440;-88
2021/07/24 04:14:25;;;;;;;14.23;8.40;;;17.30;99.90;;;;;;5014922;28;20542;-88
2021/07/24 04:16:53;;;;;;;17.53;7.67;;;17.30;99.90;;;;;;5015652;28;20493;-86
2021/07/24 04:19:20;;;;;;;15.70;8.03;;;17.40;99.90;;;;;;5031058;28;20480;-87
2021/07/24 04:21:48;;;;;;;20.40;9.07;;;17.40;99.90;;;;;;5034374;28;20539;-88
2021/07/24 04:24:18;;;;;;;17.23;9.53;;;17.40;99.90;;;;;;5033761;28;20440;-88
2021/07/24 04:26:44;;;;;;;15.00;8.43;;;17.30;99.90;;;;;;5053278;28;20494;-89
2021/07/24 04:29:11;;;;;;;16.53;8.10;;;17.40;99.90;;;;;;5054434;28;20507;-89
2021/07/24 04:31:38;;;;;;;16.83;8.90;;;17.40;99.90;;;;;;5050245;28;20456;-87
2021/07/24 04:34:05;;;;;;;15.80;8.20;;;17.50;99.90;;;;;;5015206;28;20454;-88
2021/07/24 04:36:32;;;;;;;14.87;7.60;;;17.50;99.90;;;;;;5047936;28;20490;-88
2021/07/24 04:39:00;;;;;;;14.63;8.63;;;17.50;99.90;;;;;;5054966;28;20506;-88
2021/07/24 04:41:27;;;;;;;17.13;9.13;;;17.60;99.90;;;;;;5056231;28;20448;-88
2021/07/24 04:43:53;;;;;;;15.40;8.20;;;17.60;99.90;;;;;;5053650;28;20496;-87
2021/07/24 04:46:20;;;;;;;14.90;8.27;;;17.70;99.90;;;;;;5053768;28;20463;-88
2021/07/24 04:48:47;;;;;;;16.23;8.60;;;17.80;99.90;;;;;;5053317;28;20455;-86
2021/07/24 04:51:15;;;;;;;14.77;8.53;;;17.80;99.90;;;;;;5047650;28;20918;-87
2021/07/24 04:53:43;;;;;;;14.77;7.73;;;17.90;99.90;;;;;;5032067;28;20514;-88
2021/07/24 04:56:11;;;;;;;15.23;8.63;;;17.90;99.90;;;;;;5031928;28;20571;-87
2021/07/24 04:58:39;;;;;;;13.73;7.30;;;18.00;99.90;;;;;;5031769;28;20462;-87
2021/07/24 05:01:05;;;;;;;15.20;8.63;;;18.10;99.90;;;;;;5032243;28;20527;-88
2021/07/24 05:03:33;;;;;;;16.23;7.93;;;18.20;99.90;;;;;;5031974;28;20531;-86
2021/07/24 05:06:00;;;;;;;15.27;7.57;;;18.20;99.90;;;;;;5035264;28;20943;-89
2021/07/24 05:08:28;;;;;;;17.07;9.23;;;18.30;99.90;;;;;;5052255;28;20456;-85
2021/07/24 05:10:54;;;;;;;15.53;8.10;;;18.40;99.90;;;;;;5051967;28;20531;-85
2021/07/24 05:13:23;;;;;;;17.97;9.10;;;18.50;99.90;;;;;;5042900;28;20855;-86
2021/07/24 05:15:51;;;;;;;14.10;6.97;;;18.60;99.90;;;;;;5031849;28;20488;-86
2021/07/24 05:18:18;;;;;;;16.67;7.20;;;18.70;99.90;;;;;;5031075;28;20895;-84
2021/07/24 05:20:45;;;;;;;19.23;9.80;;;18.70;99.90;;;;;;5040496;28;20452;-86
2021/07/24 05:23:11;;;;;;;16.30;8.17;;;18.80;99.90;;;;;;5031258;28;20441;-85
2021/07/24 05:25:47;;;;;;;16.43;7.73;;;18.70;99.90;;;;;;5031319;28;20448;-86
2021/07/24 05:28:14;;;;;;;18.73;8.33;;;18.70;99.90;;;;;;5030487;28;20476;-85
2021/07/24 05:30:43;;;;;;;17.40;7.33;;;18.60;99.90;;;;;;5030528;28;20472;-85
2021/07/24 05:33:10;;;;;;;17.47;9.03;;;18.70;99.90;;;;;;5026892;28;20471;-85
2021/07/24 05:35:37;;;;;;;16.60;7.70;;;18.60;99.90;;;;;;5032798;28;20800;-86
2021/07/24 05:38:04;;;;;;;17.20;8.60;;;18.70;99.90;;;;;;5034340;28;20468;-86
2021/07/24 05:40:31;;;;;;;20.43;8.87;;;18.80;99.90;;;;;;5033689;28;20463;-85
2021/07/24 05:43:00;;;;;;;16.73;10.37;;;18.80;99.90;;;;;;5032459;28;20440;-86
2021/07/24 05:45:27;;;;;;;16.37;9.30;;;18.80;99.90;;;;;;5037993;28;20457;-85
2021/07/24 05:48:00;;;;;;;14.60;8.30;;;18.80;99.90;;;;;;5034055;28;20999;-85
2021/07/24 05:50:27;;;;;;;15.90;9.20;;;18.90;99.90;;;;;;5039154;28;20445;-86
2021/07/24 05:52:53;;;;;;;15.23;8.50;;;19.00;99.90;;;;;;5043680;28;20513;-85
2021/07/24 05:55:20;;;;;;;14.83;7.90;;;19.10;99.90;;;;;;5046367;28;20537;-86
2021/07/24 05:57:47;;;;;;;15.87;7.90;;;19.20;99.90;;;;;;5048404;28;20494;-87
2021/07/24 06:00:15;;;;;;;16.17;8.30;;;19.40;99.90;;;;;;5049051;28;20448;-88
2021/07/24 06:02:41;;;;;;;14.03;7.90;;;19.50;99.90;;;;;;5057144;28;20470;-87
2021/07/24 06:05:10;;;;;;;15.37;7.93;;;19.60;99.90;;;;;;5058011;28;20476;-87
2021/07/24 06:07:37;;;;;;;17.00;9.07;;;19.60;99.90;;;;;;5059501;28;20515;-89
2021/07/24 06:10:05;;;;;;;21.10;8.40;;;19.60;99.90;;;;;;5057434;28;20460;-88
2021/07/24 06:12:32;;;;;;;17.80;9.00;;;19.70;99.90;;;;;;5060330;28;20459;-86
2021/07/24 06:14:59;;;;;;;20.97;7.90;;;19.80;99.90;;;;;;5056909;28;20536;-84
2021/07/24 06:17:26;;;;;;;14.30;7.93;;;19.80;99.90;;;;;;5037964;28;20484;-86
2021/07/24 06:19:53;;;;;;;18.67;9.20;;;19.90;99.90;;;;;;5037751;28;20447;-85
2021/07/24 06:22:25;;;;;;;17.53;8.40;;;20.00;99.90;;;;;;5039315;28;20468;-86
2021/07/24 06:24:52;;;;;;;14.30;7.60;;;20.10;99.90;;;;;;5037121;28;20826;-86
2021/07/24 06:27:18;;;;;;;16.07;7.50;;;20.20;99.90;;;;;;5089468;22;20512;-88
2021/07/24 06:29:45;;;;;;;16.37;7.60;;;20.20;99.90;;;;;;5076560;28;20530;-88
2021/07/24 06:32:12;;;;;;;17.67;7.93;;;20.30;99.90;;;;;;5079177;28;20446;-88
2021/07/24 06:34:39;;;;;;;15.57;8.17;;;20.40;99.90;;;;;;5076124;28;20450;-88
2021/07/24 06:37:07;;;;;;;17.27;8.60;;;20.40;99.90;;;;;;5087729;28;20488;-87
2021/07/24 06:39:35;;;;;;;18.10;7.63;;;20.50;99.90;;;;;;5077902;28;20489;-89
2021/07/24 06:42:02;;;;;;;17.63;8.13;;;20.50;99.90;;;;;;5094713;28;20522;-88
2021/07/24 06:44:29;;;;;;;14.63;7.37;;;20.60;99.90;;;;;;5084626;28;20458;-88
2021/07/24 06:46:57;;;;;;;15.53;8.27;;;20.70;99.90;;;;;;5082456;28;20481;-87
2021/07/24 06:49:23;;;;;;;14.97;7.60;;;20.70;99.90;;;;;;5094166;28;20533;-88
2021/07/24 06:51:50;;;;;;;14.00;7.60;;;20.80;99.90;;;;;;5080682;28;21067;-87
2021/07/24 06:54:17;;;;;;;14.90;7.33;;;20.90;99.90;;;;;;5094766;28;20807;-87
2021/07/24 06:56:47;;;;;;;17.40;8.20;;;20.90;99.90;;;;;;5094270;28;20485;-87
2021/07/24 06:59:14;;;;;;;15.43;8.33;;;21.10;99.90;;;;;;5094112;28;20450;-87
2021/07/24 07:01:41;;;;;;;16.93;8.40;;;21.20;99.90;;;;;;5080534;28;20451;-88
2021/07/24 07:04:09;;;;;;;13.50;6.77;;;21.20;99.90;;;;;;5092525;28;20489;-88
2021/07/24 07:06:36;;;;;;;17.30;8.40;;;21.30;99.90;;;;;;5094043;28;20462;-87
2021/07/24 07:09:02;;;;;;;17.60;7.70;;;21.40;99.90;;;;;;5093848;28;20448;-88
2021/07/24 07:11:29;;;;;;;18.47;9.63;;;21.50;99.90;;;;;;5074207;28;20458;-88
2021/07/24 07:13:57;;;;;;;16.43;8.50;;;21.60;99.90;;;;;;5077850;28;20912;-89
2021/07/24 07:16:24;;;;;;;16.80;7.27;;;21.60;99.90;;;;;;5091350;28;20478;-88
2021/07/24 07:18:51;;;;;;;15.57;7.50;;;21.70;99.90;;;;;;5072647;28;20550;-88
2021/07/24 07:21:18;;;;;;;14.67;7.23;;;21.80;99.90;;;;;;5074384;28;21055;-87
2021/07/24 07:23:45;;;;;;;14.10;6.90;;;21.90;99.90;;;;;;5073879;28;20455;-87
2021/07/24 07:26:12;;;;;;;14.37;7.07;;;21.90;99.90;;;;;;5077688;28;20486;-87
2021/07/24 07:28:39;;;;;;;14.63;7.33;;;22.00;99.90;;;;;;5093168;28;20465;-87
2021/07/24 07:31:07;;;;;;;16.20;7.17;;;22.00;99.90;;;;;;5092278;28;20842;-88
2021/07/24 07:33:34;;;;;;;15.80;7.23;;;22.00;99.90;;;;;;5084024;28;20455;-88
2021/07/24 07:36:01;;;;;;;16.23;7.50;;;22.10;99.90;;;;;;5073581;28;20461;-88
2021/07/24 07:38:28;;;;;;;16.50;7.67;;;22.10;99.90;;;;;;5073074;28;20858;-88
2021/07/24 07:40:54;;;;;;;14.00;7.20;;;22.10;99.90;;;;;;5082125;28;20472;-88
2021/07/24 07:43:21;;;;;;;14.03;6.40;;;22.20;99.90;;;;;;5094277;28;20442;-88
2021/07/24 07:45:48;;;;;;;15.73;7.93;;;22.30;99.90;;;;;;5092677;28;20446;-88
2021/07/24 07:48:16;;;;;;;14.40;6.73;;;22.20;99.90;;;;;;5093291;28;20444;-88
2021/07/24 07:50:43;;;;;;;14.53;7.20;;;22.20;99.90;;;;;;5077759;28;20455;-88
2021/07/24 07:53:10;;;;;;;16.37;7.17;;;22.30;99.90;;;;;;5072910;28;20486;-87
2021/07/24 07:55:40;;;;;;;14.80;7.33;;;22.30;99.90;;;;;;5077068;28;20426;-87
2021/07/24 07:58:11;;;;;;;15.43;7.17;;;22.40;99.90;;;;;;5091973;28;20564;-88
2021/07/24 08:00:38;;;;;;;16.00;7.93;;;22.50;99.90;;;;;;5092761;28;20503;-88
2021/07/24 08:03:04;;;;;;;14.57;7.30;;;22.50;99.90;;;;;;5092395;28;20529;-89
2021/07/24 08:05:33;;;;;;;15.40;7.33;;;22.50;99.90;;;;;;5089667;28;20454;-88
2021/07/24 08:08:00;;;;;;;15.43;6.57;;;22.60;99.90;;;;;;5087159;28;20465;-88
2021/07/24 08:10:27;;;;;;;15.87;7.67;;;22.60;99.90;;;;;;5083463;28;20457;-88
2021/07/24 08:12:54;;;;;;;15.20;7.13;;;22.70;99.90;;;;;;5091469;28;20460;-89
2021/07/24 08:15:20;;;;;;;14.37;6.50;;;22.70;99.90;;;;;;5093422;28;20456;-89
2021/07/24 08:17:49;;;;;;;15.50;6.90;;;22.80;99.90;;;;;;5092950;28;20497;-87
2021/07/24 08:20:21;;;;;;;14.20;6.90;;;22.80;99.90;;;;;;5092347;28;20450;-87
2021/07/24 08:22:49;;;;;;;15.13;7.57;;;22.90;99.90;;;;;;5083144;28;20458;-87
2021/07/24 08:25:19;;;;;;;15.70;7.23;;;23.10;99.90;;;;;;5072462;28;20451;-86
2021/07/24 08:27:45;;;;;;;15.80;7.33;;;23.20;99.90;;;;;;5072503;28;20481;-85
2021/07/24 08:30:13;;;;;;;14.33;6.97;;;23.30;99.90;;;;;;5071565;28;20457;-87
2021/07/24 08:32:41;;;;;;;15.47;7.10;;;23.60;99.90;;;;;;5072605;28;20451;-88
2021/07/24 08:35:08;;;;;;;15.13;6.47;;;23.80;99.90;;;;;;5072177;28;20459;-87
2021/07/24 08:37:35;;;;;;;15.17;8.00;;;24.10;99.90;;;;;;5072891;28;20522;-87
2021/07/24 08:40:04;;;;;;;20.03;8.00;;;24.30;99.90;;;;;;5088018;28;20448;-88
2021/07/24 08:42:33;;;;;;;15.33;6.50;;;24.50;99.90;;;;;;5072778;28;20449;-87
2021/07/24 08:45:04;;;;;;;17.77;7.60;;;24.70;99.90;;;;;;5072815;28;20538;-88
2021/07/24 08:47:31;;;;;;;17.30;7.27;;;24.90;99.90;;;;;;5070715;28;20481;-87
2021/07/24 08:50:04;;;;;;;17.00;7.00;;;25.10;99.90;;;;;;5072190;28;20453;-88
2021/07/24 08:52:32;;;;;;;19.13;8.23;;;25.20;99.90;;;;;;5092186;28;20450;-86
2021/07/24 08:55:01;;;;;;;14.20;6.87;;;25.20;99.90;;;;;;5091039;28;20457;-88
2021/07/24 08:57:48;;;;;;;17.87;7.97;;;25.30;99.90;;;;;;5096789;28;20481;-87
2021/07/24 09:00:19;;;;;;;17.17;7.70;;;25.30;99.90;;;;;;5083321;28;20453;-87
2021/07/24 09:02:47;;;;;;;18.10;8.23;;;25.60;99.90;;;;;;5095562;28;20537;-88
2021/07/24 09:05:16;;;;;;;17.83;8.23;;;25.70;99.90;;;;;;5090634;28;20458;-87
2021/07/24 09:07:45;;;;;;;16.30;6.83;;;25.70;99.90;;;;;;5089596;28;20476;-87
2021/07/24 09:10:12;;;;;;;16.10;7.50;;;25.80;99.90;;;;;;5092428;28;20476;-87
2021/07/24 09:12:42;;;;;;;18.50;7.87;;;25.90;99.90;;;;;;5088683;28;20465;-88
2021/07/24 09:15:12;;;;;;;15.63;7.80;;;26.00;99.90;;;;;;5088246;28;20441;-87
2021/07/24 09:17:39;;;;;;;18.80;7.73;;;26.10;99.90;;;;;;5093818;28;20581;-87
2021/07/24 09:20:07;;;;;;;17.70;7.63;;;26.10;99.90;;;;;;5097076;28;20834;-86
2021/07/24 09:22:35;;;;;;;17.83;7.13;;;26.20;99.90;;;;;;5112622;28;20956;-87
2021/07/24 09:25:07;;;;;;;20.43;7.90;;;26.10;99.90;;;;;;5094777;28;20968;-87
2021/07/24 09:27:35;;;;;;;19.00;8.40;;;26.20;99.90;;;;;;5096005;28;20481;-88
2021/07/24 09:30:03;;;;;;;19.90;7.33;;;26.20;99.90;;;;;;5094177;28;20962;-87
2021/07/24 09:32:31;;;;;;;17.70;8.17;;;26.30;99.90;;;;;;5096335;28;20452;-87
2021/07/24 09:34:59;;;;;;;18.53;7.80;;;26.40;99.90;;;;;;5096468;28;20462;-87
2021/07/24 09:37:27;;;;;;;17.40;8.10;;;26.50;99.90;;;;;;5096626;28;20547;-89
2021/07/24 09:39:55;;;;;;;16.57;8.03;;;26.60;99.90;;;;;;5095131;28;20877;-89
2021/07/24 09:42:22;;;;;;;17.03;8.37;;;26.70;99.90;;;;;;5095138;28;21003;-87
2021/07/24 09:45:07;;;;;;;19.63;9.00;;;27.00;99.90;;;;;;5095777;28;20453;-89
2021/07/24 09:47:34;;;;;;;19.33;8.23;;;27.10;99.90;;;;;;5117445;28;20483;-85
2021/07/24 09:50:12;;;;;;;16.30;7.23;;;27.30;99.90;;;;;;5115138;28;20445;-86
2021/07/24 09:52:45;;;;;;;20.40;8.67;;;27.40;99.90;;;;;;5115866;28;20436;-88
2021/07/24 09:55:21;;;;;;;22.20;8.90;;;27.50;99.90;;;;;;5131890;28;20441;-87
2021/07/24 09:57:48;;;;;;;23.70;9.77;;;27.60;99.90;;;;;;5126597;28;20557;-87
2021/07/24 10:00:27;;;;;;;19.83;8.43;;;27.70;99.90;;;;;;5117937;28;20455;-87
2021/07/24 10:03:02;;;;;;;22.07;7.10;;;27.70;99.90;;;;;;5100863;28;20542;-86
2021/07/24 10:05:39;;;;;;;18.60;8.40;;;27.70;99.90;;;;;;5096756;28;21016;-87
2021/07/24 10:08:09;;;;;;;18.67;8.70;;;27.60;99.90;;;;;;5097113;28;20438;-86
2021/07/24 10:10:38;;;;;;;18.40;8.10;;;27.40;99.90;;;;;;5096037;28;20462;-87
2021/07/24 10:13:08;;;;;;;20.13;8.20;;;27.50;99.90;;;;;;5095730;28;20461;-87
2021/07/24 10:15:39;;;;;;;20.50;8.63;;;27.60;99.90;;;;;;5096222;28;20434;-87
2021/07/24 10:18:07;;;;;;;22.50;8.50;;;27.90;99.90;;;;;;5095523;28;20500;-87
2021/07/24 10:20:39;;;;;;;25.30;9.10;;;27.90;99.90;;;;;;5095630;28;20973;-86
2021/07/24 10:23:07;;;;;;;20.30;8.63;;;28.00;99.90;;;;;;5102462;28;20454;-87
2021/07/24 10:25:42;;;;;;;23.57;8.80;;;28.10;99.90;;;;;;5095531;28;20450;-86
2021/07/24 10:28:13;;;;;;;24.30;8.60;;;28.00;99.90;;;;;;5095916;28;20468;-87
2021/07/24 10:30:42;;;;;;;31.00;9.00;;;27.80;99.90;;;;;;5094810;28;21119;-88
2021/07/24 10:33:11;;;;;;;22.50;8.30;;;27.70;99.90;;;;;;5095537;28;20450;-88
2021/07/24 10:35:39;;;;;;;21.83;8.60;;;27.60;99.90;;;;;;5088223;28;20462;-88
2021/07/24 10:38:32;;;;;;;24.07;8.20;;;27.50;99.90;;;;;;5075375;28;20486;-87
2021/07/24 10:41:36;;;;;;;25.73;8.40;;;27.30;99.90;;;;;;5075439;28;20451;-87
2021/07/24 10:44:04;;;;;;;23.93;9.37;;;27.00;99.90;;;;;;5075817;28;20504;-86
2021/07/24 10:47:08;;;;;;;24.23;8.07;;;26.90;99.90;;;;;;5074725;28;20702;-87
2021/07/24 10:50:01;;;;;;;29.60;9.13;;;26.80;99.90;;;;;;5073663;28;20927;-87
2021/07/24 10:53:09;;;;;;;28.23;10.00;;;26.50;99.90;;;;;;5074166;28;20499;-86
2021/07/24 10:55:40;;;;;;;24.27;10.13;;;26.50;99.90;;;;;;5076659;28;20442;-87
2021/07/24 10:58:07;;;;;;;25.17;9.87;;;26.40;99.90;;;;;;5081803;28;20492;-87
2021/07/24 11:00:50;;;;;;;25.27;10.73;;;26.30;99.90;;;;;;5093934;28;20630;-85
2021/07/24 11:03:31;;;;;;;21.83;10.40;;;26.20;99.90;;;;;;5094824;28;20438;-85
2021/07/24 11:05:59;;;;;;;25.27;9.90;;;26.10;99.90;;;;;;5093901;28;20495;-86
2021/07/24 11:09:03;;;;;;;22.83;8.73;;;26.00;99.90;;;;;;5089673;28;20443;-86
2021/07/24 11:11:40;;;;;;;19.10;10.77;;;25.90;99.90;;;;;;5078502;28;20453;-86
2021/07/24 11:14:08;;;;;;;21.63;8.80;;;25.90;99.90;;;;;;5092774;28;20987;-86
2021/07/24 11:17:14;;;;;;;21.27;9.30;;;25.80;99.90;;;;;;5094022;28;20566;-86
2021/07/24 11:19:42;;;;;;;20.63;10.17;;;25.70;99.90;;;;;;5093404;28;20477;-87
2021/07/24 11:22:12;;;;;;;19.63;9.70;;;25.60;99.90;;;;;;5093667;28;20460;-86
2021/07/24 11:25:05;;;;;;;21.83;10.93;;;25.60;99.90;;;;;;5104590;28;20446;-87
2021/07/24 11:27:33;;;;;;;20.00;9.13;;;25.50;99.90;;;;;;5074531;28;20479;-87
2021/07/24 11:30:10;;;;;;;18.77;10.07;;;25.50;99.90;;;;;;5072613;28;20923;-88
2021/07/24 11:32:39;;;;;;;18.50;9.37;;;25.50;99.90;;;;;;5073334;28;20439;-87
2021/07/24 11:35:07;;;;;;;24.17;10.00;;;25.30;99.90;;;;;;5072955;28;20454;-88
2021/07/24 11:37:36;;;;;;;25.30;10.27;;;25.20;99.90;;;;;;5072484;28;20471;-87
2021/07/24 11:40:04;;;;;;;30.23;11.80;;;25.00;99.90;;;;;;5071595;28;20449;-86
2021/07/24 11:42:31;;;;;;;27.40;9.57;;;24.80;99.90;;;;;;5081236;28;20591;-87
2021/07/24 11:44:58;;;;;;;28.60;10.00;;;24.80;99.90;;;;;;5076839;28;20550;-86
2021/07/24 11:47:25;;;;;;;24.67;9.00;;;24.70;99.90;;;;;;5075063;28;20506;-86
2021/07/24 11:49:54;;;;;;;26.80;9.87;;;24.50;99.90;;;;;;5073454;28;20526;-86
2021/07/24 11:52:23;;;;;;;26.10;10.30;;;24.50;99.90;;;;;;5076474;28;20511;-86
2021/07/24 11:54:52;;;;;;;28.40;8.97;;;24.50;99.90;;;;;;5093789;28;20942;-87
2021/07/24 11:57:27;;;;;;;32.50;11.37;;;24.50;99.90;;;;;;5084360;28;20562;-86
2021/07/24 11:59:54;;;;;;;39.03;10.60;;;24.50;99.90;;;;;;5073970;28;20430;-87
2021/07/24 12:02:23;;;;;;;38.60;10.70;;;24.50;99.90;;;;;;5074002;28;20457;-85
2021/07/24 12:04:50;;;;;;;31.40;9.97;;;24.50;99.90;;;;;;5074455;28;20538;-86
2021/07/24 12:07:20;;;;;;;25.10;9.77;;;24.60;99.90;;;;;;5074680;28;20853;-85
2021/07/24 12:09:47;;;;;;;26.87;10.40;;;24.70;99.90;;;;;;5077855;28;20438;-86
2021/07/24 12:12:16;;;;;;;27.07;10.87;;;24.80;99.90;;;;;;5081552;28;20542;-86
2021/07/24 12:14:43;;;;;;;37.63;10.87;;;24.90;99.90;;;;;;5087713;28;20448;-86
2021/07/24 12:17:11;;;;;;;36.33;11.10;;;25.00;99.90;;;;;;5093641;28;20469;-87
2021/07/24 12:19:39;;;;;;;32.87;9.57;;;25.00;99.90;;;;;;5072647;28;20487;-86
2021/07/24 12:22:14;;;;;;;32.80;11.13;;;25.00;99.90;;;;;;5073094;28;20442;-86
2021/07/24 12:24:43;;;;;;;45.37;11.77;;;25.00;99.90;;;;;;5072763;28;20504;-87
2021/07/24 12:27:15;;;;;;;41.30;10.90;;;25.00;99.90;;;;;;5072599;28;20471;-87
2021/07/24 12:29:55;;;;;;;46.67;11.60;;;25.10;99.90;;;;;;5084912;28;20498;-87
2021/07/24 12:32:23;;;;;;;40.70;10.77;;;25.20;99.90;;;;;;5101625;28;20473;-86
2021/07/24 12:34:54;;;;;;;42.63;10.93;;;25.30;99.90;;;;;;5080657;28;20453;-86
2021/07/24 12:37:30;;;;;;;42.80;10.87;;;25.30;99.90;;;;;;5093461;28;20481;-86
2021/07/24 12:40:14;;;;;;;29.57;10.77;;;25.40;99.90;;;;;;5093009;28;20886;-86
2021/07/24 12:42:42;;;;;;;31.67;10.23;;;25.50;99.90;;;;;;5093171;28;20453;-88
2021/07/24 12:45:23;;;;;;;33.83;12.43;;;25.50;99.90;;;;;;5076551;28;20530;-87
2021/07/24 12:47:52;;;;;;;53.87;14.17;;;25.30;99.90;;;;;;5072933;28;20470;-86
2021/07/24 12:50:19;;;;;;;33.87;11.23;;;25.30;99.90;;;;;;5072909;28;20458;-86
2021/07/24 12:52:47;;;;;;;27.80;10.33;;;25.40;99.90;;;;;;5072682;28;20538;-86
2021/07/24 12:55:17;;;;;;;32.53;10.30;;;25.40;99.90;;;;;;5092618;28;20446;-86
2021/07/24 12:57:46;;;;;;;29.87;10.80;;;25.30;99.90;;;;;;5092740;28;20474;-87
2021/07/24 13:00:14;;;;;;;29.97;11.10;;;25.20;99.90;;;;;;5092562;28;20836;-87
2021/07/24 13:02:42;;;;;;;33.40;11.10;;;25.10;99.90;;;;;;5092954;28;20528;-87
2021/07/24 13:05:10;;;;;;;28.37;11.70;;;25.10;99.90;;;;;;5092447;28;20439;-87
2021/07/24 13:07:39;;;;;;;27.33;11.50;;;25.20;99.90;;;;;;5092252;28;20555;-87
2021/07/24 13:10:07;;;;;;;27.50;11.17;;;24.90;99.90;;;;;;5092539;28;20532;-87
2021/07/24 13:12:34;;;;;;;26.47;11.50;;;24.90;99.90;;;;;;5081766;28;20462;-88
2021/07/24 13:15:07;;;;;;;23.50;11.00;;;24.90;99.90;;;;;;5071310;28;20451;-85
2021/07/24 13:17:34;;;;;;;29.70;10.93;;;24.80;99.90;;;;;;5072335;28;20475;-88
2021/07/24 13:20:01;;;;;;;25.67;11.40;;;24.80;99.90;;;;;;5071884;28;20485;-88
2021/07/24 13:22:29;;;;;;;24.80;12.13;;;24.70;99.90;;;;;;5072091;28;20958;-87
2021/07/24 13:25:04;;;;;;;21.47;9.77;;;24.60;99.90;;;;;;5072410;28;20455;-88
2021/07/24 13:30:17;;;;;;;22.17;11.53;;;24.40;99.90;;;;;;5093446;28;20430;-87
2021/07/24 13:32:44;;;;;;;20.97;10.57;;;24.40;99.90;;;;;;5080844;28;20447;-88
2021/07/24 13:35:13;;;;;;;22.07;11.20;;;24.30;99.90;;;;;;5083944;28;20450;-87
2021/07/24 13:37:40;;;;;;;24.03;11.47;;;24.30;99.90;;;;;;5093157;28;20994;-87
2021/07/24 13:40:10;;;;;;;23.93;10.17;;;24.20;99.90;;;;;;5082619;28;20510;-88
2021/07/24 13:42:38;;;;;;;24.57;11.30;;;24.10;99.90;;;;;;5078298;28;20511;-87
2021/07/24 13:45:06;;;;;;;23.30;10.80;;;24.10;99.90;;;;;;5079155;28;20532;-88
2021/07/24 13:47:34;;;;;;;24.47;11.77;;;24.00;99.90;;;;;;5081975;28;20467;-87
2021/07/24 13:50:01;;;;;;;21.80;10.30;;;23.90;99.90;;;;;;5084549;28;20482;-87
2021/07/24 13:52:29;;;;;;;24.53;12.30;;;23.90;99.90;;;;;;5086752;28;20508;-88
2021/07/24 13:54:56;;;;;;;23.10;11.27;;;23.80;99.90;;;;;;5073703;28;20500;-88
2021/07/24 13:57:23;;;;;;;23.30;12.50;;;23.70;99.90;;;;;;5075642;28;20483;-89
2021/07/24 13:59:50;;;;;;;27.83;11.43;;;23.60;99.90;;;;;;5074649;28;20491;-86
2021/07/24 14:02:26;;;;;;;24.53;11.47;;;23.50;99.90;;;;;;5112684;22;20491;-89